sensor_id;sensor_type;location;lat;lon;timestamp;P1;durP1;ratioP1;P2;durP2;ratioP2
51475;SDS011;37554;50.362;7.568;2022-08-03T00:01:16;2.80;;;0.90;;
51475;SDS011;37554;50.362;7.568;2022-08-03T00:03:42;2.72;;;1.05;;
51475;SDS011;37554;50.362;7.568;2022-08-03T00:06:08;2.05;;;0.77;;
51475;SDS011;37554;50.362;7.568;2022-08-03T00:08:34;1.00;;;0.90;;
51475;SDS011;37554;50.362;7.568;2022-08-03T00:11:00;0.80;;;0.80;;
51475;SDS011;37554;50.362;7.568;2022-08-03T00:13:26;1.60;;;1.00;;
51475;SDS011;37554;50.362;7.568;2022-08-03T00:15:51;2.20;;;0.90;;
51475;SDS011;37554;50.362;7.568;2022-08-03T00:18:17;1.73;;;0.90;;
51475;SDS011;37554;50.362;7.568;2022-08-03T00:20:43;1.15;;;0.80;;
51475;SDS011;37554;50.362;7.568;2022-08-03T00:23:09;0.80;;;0.80;;
51475;SDS011;37554;50.362;7.568;2022-08-03T00:25:35;3.38;;;0.90;;
51475;SDS011;37554;50.362;7.568;2022-08-03T00:28:02;0.70;;;0.65;;
51475;SDS011;37554;50.362;7.568;2022-08-03T00:30:28;1.00;;;0.80;;
51475;SDS011;37554;50.362;7.568;2022-08-03T00:32:54;1.85;;;0.70;;
51475;SDS011;37554;50.362;7.568;2022-08-03T00:35:20;1.02;;;0.80;;
51475;SDS011;37554;50.362;7.568;2022-08-03T00:37:46;2.05;;;0.70;;
51475;SDS011;37554;50.362;7.568;2022-08-03T00:40:12;0.70;;;0.70;;
51475;SDS011;37554;50.362;7.568;2022-08-03T00:42:46;1.30;;;0.70;;
51475;SDS011;37554;50.362;7.568;2022-08-03T00:45:16;1.30;;;0.70;;
51475;SDS011;37554;50.362;7.568;2022-08-03T00:47:42;1.13;;;0.90;;
51475;SDS011;37554;50.362;7.568;2022-08-03T00:50:08;1.75;;;0.98;;
51475;SDS011;37554;50.362;7.568;2022-08-03T00:52:34;1.38;;;0.95;;
51475;SDS011;37554;50.362;7.568;2022-08-03T00:55:00;1.05;;;0.90;;
51475;SDS011;37554;50.362;7.568;2022-08-03T00:57:27;1.17;;;0.80;;
51475;SDS011;37554;50.362;7.568;2022-08-03T00:59:56;2.30;;;0.82;;
51475;SDS011;37554;50.362;7.568;2022-08-03T01:02:21;1.30;;;0.88;;
51475;SDS011;37554;50.362;7.568;2022-08-03T01:04:47;1.15;;;0.90;;
51475;SDS011;37554;50.362;7.568;2022-08-03T01:10:00;1.35;;;0.90;;
51475;SDS011;37554;50.362;7.568;2022-08-03T01:15:28;2.28;;;0.98;;
51475;SDS011;37554;50.362;7.568;2022-08-03T01:17:56;1.15;;;0.80;;
51475;SDS011;37554;50.362;7.568;2022-08-03T01:20:30;1.30;;;0.93;;
51475;SDS011;37554;50.362;7.568;2022-08-03T01:31:20;0.95;;;0.93;;
51475;SDS011;37554;50.362;7.568;2022-08-03T01:33:51;1.95;;;0.77;;
51475;SDS011;37554;50.362;7.568;2022-08-03T01:36:21;1.33;;;0.88;;
51475;SDS011;37554;50.362;7.568;2022-08-03T01:38:57;1.40;;;0.93;;
51475;SDS011;37554;50.362;7.568;2022-08-03T01:41:28;1.50;;;0.93;;
51475;SDS011;37554;50.362;7.568;2022-08-03T01:43:57;3.40;;;0.97;;
51475;SDS011;37554;50.362;7.568;2022-08-03T01:46:26;0.98;;;0.80;;
51475;SDS011;37554;50.362;7.568;2022-08-03T01:48:54;2.80;;;0.80;;
51475;SDS011;37554;50.362;7.568;2022-08-03T01:51:21;0.88;;;0.80;;
51475;SDS011;37554;50.362;7.568;2022-08-03T01:53:47;1.10;;;0.80;;
51475;SDS011;37554;50.362;7.568;2022-08-03T01:56:15;1.42;;;0.80;;
51475;SDS011;37554;50.362;7.568;2022-08-03T01:58:43;1.20;;;1.10;;
51475;SDS011;37554;50.362;7.568;2022-08-03T02:01:10;2.00;;;0.60;;
51475;SDS011;37554;50.362;7.568;2022-08-03T02:03:38;1.05;;;0.90;;
51475;SDS011;37554;50.362;7.568;2022-08-03T02:06:06;0.75;;;0.65;;
51475;SDS011;37554;50.362;7.568;2022-08-03T02:08:36;1.20;;;1.00;;
51475;SDS011;37554;50.362;7.568;2022-08-03T02:11:03;1.10;;;1.00;;
51475;SDS011;37554;50.362;7.568;2022-08-03T02:13:29;2.03;;;0.88;;
51475;SDS011;37554;50.362;7.568;2022-08-03T02:15:58;4.38;;;1.00;;
51475;SDS011;37554;50.362;7.568;2022-08-03T02:18:26;3.35;;;0.90;;
51475;SDS011;37554;50.362;7.568;2022-08-03T02:20:53;2.45;;;0.90;;
51475;SDS011;37554;50.362;7.568;2022-08-03T02:23:19;1.85;;;1.20;;
51475;SDS011;37554;50.362;7.568;2022-08-03T02:25:46;0.98;;;0.90;;
51475;SDS011;37554;50.362;7.568;2022-08-03T02:28:17;1.27;;;1.00;;
51475;SDS011;37554;50.362;7.568;2022-08-03T02:30:45;2.28;;;1.10;;
51475;SDS011;37554;50.362;7.568;2022-08-03T02:33:17;1.23;;;1.00;;
51475;SDS011;37554;50.362;7.568;2022-08-03T02:35:47;1.80;;;1.00;;
51475;SDS011;37554;50.362;7.568;2022-08-03T02:38:15;1.13;;;0.95;;
51475;SDS011;37554;50.362;7.568;2022-08-03T02:40:44;1.40;;;0.88;;
51475;SDS011;37554;50.362;7.568;2022-08-03T02:43:11;2.38;;;0.95;;
51475;SDS011;37554;50.362;7.568;2022-08-03T02:45:43;0.80;;;0.80;;
51475;SDS011;37554;50.362;7.568;2022-08-03T02:48:10;1.55;;;0.93;;
51475;SDS011;37554;50.362;7.568;2022-08-03T02:50:39;1.02;;;0.90;;
51475;SDS011;37554;50.362;7.568;2022-08-03T02:53:08;2.35;;;1.00;;
51475;SDS011;37554;50.362;7.568;2022-08-03T02:55:36;2.35;;;1.00;;
51475;SDS011;37554;50.362;7.568;2022-08-03T02:58:03;2.67;;;0.88;;
51475;SDS011;37554;50.362;7.568;2022-08-03T03:00:34;3.65;;;1.02;;
51475;SDS011;37554;50.362;7.568;2022-08-03T03:03:01;1.45;;;1.02;;
51475;SDS011;37554;50.362;7.568;2022-08-03T03:05:30;1.10;;;1.00;;
51475;SDS011;37554;50.362;7.568;2022-08-03T03:07:56;1.17;;;0.88;;
51475;SDS011;37554;50.362;7.568;2022-08-03T03:10:22;2.05;;;0.75;;
51475;SDS011;37554;50.362;7.568;2022-08-03T03:12:50;2.22;;;0.90;;
51475;SDS011;37554;50.362;7.568;2022-08-03T03:15:19;1.17;;;0.90;;
51475;SDS011;37554;50.362;7.568;2022-08-03T03:17:45;3.42;;;0.80;;
51475;SDS011;37554;50.362;7.568;2022-08-03T03:20:13;2.40;;;1.20;;
51475;SDS011;37554;50.362;7.568;2022-08-03T03:22:41;2.03;;;0.93;;
51475;SDS011;37554;50.362;7.568;2022-08-03T03:25:08;1.42;;;1.10;;
51475;SDS011;37554;50.362;7.568;2022-08-03T03:27:34;3.65;;;0.90;;
51475;SDS011;37554;50.362;7.568;2022-08-03T03:30:01;1.40;;;1.23;;
51475;SDS011;37554;50.362;7.568;2022-08-03T03:32:28;1.70;;;1.10;;
51475;SDS011;37554;50.362;7.568;2022-08-03T03:34:54;1.38;;;1.27;;
51475;SDS011;37554;50.362;7.568;2022-08-03T03:37:23;1.15;;;0.90;;
51475;SDS011;37554;50.362;7.568;2022-08-03T03:39:50;1.35;;;0.95;;
51475;SDS011;37554;50.362;7.568;2022-08-03T03:42:17;1.48;;;1.00;;
51475;SDS011;37554;50.362;7.568;2022-08-03T03:44:43;2.75;;;1.05;;
51475;SDS011;37554;50.362;7.568;2022-08-03T03:47:09;1.13;;;0.80;;
51475;SDS011;37554;50.362;7.568;2022-08-03T03:49:34;2.75;;;0.90;;
51475;SDS011;37554;50.362;7.568;2022-08-03T03:52:00;1.20;;;0.88;;
51475;SDS011;37554;50.362;7.568;2022-08-03T03:54:26;1.52;;;0.95;;
51475;SDS011;37554;50.362;7.568;2022-08-03T03:57:06;1.58;;;1.08;;
51475;SDS011;37554;50.362;7.568;2022-08-03T03:59:36;1.30;;;0.93;;
51475;SDS011;37554;50.362;7.568;2022-08-03T04:02:03;2.13;;;1.00;;
51475;SDS011;37554;50.362;7.568;2022-08-03T04:04:31;1.60;;;1.00;;
51475;SDS011;37554;50.362;7.568;2022-08-03T04:07:16;1.23;;;1.13;;
51475;SDS011;37554;50.362;7.568;2022-08-03T04:10:01;1.33;;;1.15;;
51475;SDS011;37554;50.362;7.568;2022-08-03T04:12:49;1.65;;;0.90;;
51475;SDS011;37554;50.362;7.568;2022-08-03T04:15:18;1.83;;;1.10;;
51475;SDS011;37554;50.362;7.568;2022-08-03T04:17:46;1.20;;;0.90;;
51475;SDS011;37554;50.362;7.568;2022-08-03T04:20:14;3.67;;;0.98;;
51475;SDS011;37554;50.362;7.568;2022-08-03T04:22:40;1.83;;;1.20;;
51475;SDS011;37554;50.362;7.568;2022-08-03T04:25:08;1.55;;;0.93;;
51475;SDS011;37554;50.362;7.568;2022-08-03T04:27:40;1.13;;;1.02;;
51475;SDS011;37554;50.362;7.568;2022-08-03T04:30:07;2.85;;;1.10;;
51475;SDS011;37554;50.362;7.568;2022-08-03T04:32:34;2.70;;;1.05;;
51475;SDS011;37554;50.362;7.568;2022-08-03T04:35:03;1.33;;;1.13;;
51475;SDS011;37554;50.362;7.568;2022-08-03T04:37:43;1.45;;;1.10;;
51475;SDS011;37554;50.362;7.568;2022-08-03T04:40:30;1.23;;;1.13;;
51475;SDS011;37554;50.362;7.568;2022-08-03T04:42:58;2.17;;;1.15;;
51475;SDS011;37554;50.362;7.568;2022-08-03T04:45:24;2.78;;;1.10;;
51475;SDS011;37554;50.362;7.568;2022-08-03T04:47:52;1.50;;;1.10;;
51475;SDS011;37554;50.362;7.568;2022-08-03T04:50:18;2.13;;;1.10;;
51475;SDS011;37554;50.362;7.568;2022-08-03T04:52:45;1.27;;;1.02;;
51475;SDS011;37554;50.362;7.568;2022-08-03T04:55:11;1.67;;;1.30;;
51475;SDS011;37554;50.362;7.568;2022-08-03T04:57:36;1.27;;;1.13;;
51475;SDS011;37554;50.362;7.568;2022-08-03T05:00:02;1.20;;;1.05;;
51475;SDS011;37554;50.362;7.568;2022-08-03T05:02:29;2.40;;;1.10;;
51475;SDS011;37554;50.362;7.568;2022-08-03T05:04:56;1.30;;;1.05;;
51475;SDS011;37554;50.362;7.568;2022-08-03T05:07:21;1.92;;;0.88;;
51475;SDS011;37554;50.362;7.568;2022-08-03T05:09:47;3.10;;;1.10;;
51475;SDS011;37554;50.362;7.568;2022-08-03T05:12:12;1.92;;;1.30;;
51475;SDS011;37554;50.362;7.568;2022-08-03T05:14:38;1.50;;;1.10;;
51475;SDS011;37554;50.362;7.568;2022-08-03T05:17:04;1.38;;;1.27;;
51475;SDS011;37554;50.362;7.568;2022-08-03T05:19:30;0.93;;;0.93;;
51475;SDS011;37554;50.362;7.568;2022-08-03T05:21:56;1.25;;;1.08;;
51475;SDS011;37554;50.362;7.568;2022-08-03T05:24:22;3.28;;;1.05;;
51475;SDS011;37554;50.362;7.568;2022-08-03T05:26:47;1.65;;;1.00;;
51475;SDS011;37554;50.362;7.568;2022-08-03T05:29:13;1.60;;;1.27;;
51475;SDS011;37554;50.362;7.568;2022-08-03T05:31:39;1.10;;;1.00;;
51475;SDS011;37554;50.362;7.568;2022-08-03T05:34:05;1.35;;;1.10;;
51475;SDS011;37554;50.362;7.568;2022-08-03T05:36:30;1.88;;;1.30;;
51475;SDS011;37554;50.362;7.568;2022-08-03T05:38:56;1.88;;;1.17;;
51475;SDS011;37554;50.362;7.568;2022-08-03T05:41:22;1.83;;;1.15;;
51475;SDS011;37554;50.362;7.568;2022-08-03T05:43:48;2.90;;;1.40;;
51475;SDS011;37554;50.362;7.568;2022-08-03T05:46:14;2.35;;;1.33;;
51475;SDS011;37554;50.362;7.568;2022-08-03T05:48:40;2.45;;;1.20;;
51475;SDS011;37554;50.362;7.568;2022-08-03T05:51:06;2.35;;;1.40;;
51475;SDS011;37554;50.362;7.568;2022-08-03T05:53:35;2.65;;;1.50;;
51475;SDS011;37554;50.362;7.568;2022-08-03T05:56:01;1.88;;;1.30;;
51475;SDS011;37554;50.362;7.568;2022-08-03T05:58:26;3.45;;;1.30;;
51475;SDS011;37554;50.362;7.568;2022-08-03T06:00:52;2.53;;;1.73;;
51475;SDS011;37554;50.362;7.568;2022-08-03T06:03:18;2.00;;;1.17;;
51475;SDS011;37554;50.362;7.568;2022-08-03T06:05:44;1.30;;;1.17;;
51475;SDS011;37554;50.362;7.568;2022-08-03T06:08:10;1.50;;;1.25;;
51475;SDS011;37554;50.362;7.568;2022-08-03T06:10:36;4.00;;;1.30;;
51475;SDS011;37554;50.362;7.568;2022-08-03T06:13:02;2.03;;;1.50;;
51475;SDS011;37554;50.362;7.568;2022-08-03T06:15:28;1.25;;;1.15;;
51475;SDS011;37554;50.362;7.568;2022-08-03T06:17:54;1.38;;;1.20;;
51475;SDS011;37554;50.362;7.568;2022-08-03T06:20:21;1.50;;;1.40;;
51475;SDS011;37554;50.362;7.568;2022-08-03T06:22:47;1.65;;;1.38;;
51475;SDS011;37554;50.362;7.568;2022-08-03T06:25:13;2.92;;;1.27;;
51475;SDS011;37554;50.362;7.568;2022-08-03T06:27:40;2.95;;;1.20;;
51475;SDS011;37554;50.362;7.568;2022-08-03T06:30:06;4.05;;;1.38;;
51475;SDS011;37554;50.362;7.568;2022-08-03T06:32:35;1.30;;;1.15;;
51475;SDS011;37554;50.362;7.568;2022-08-03T06:35:07;2.70;;;1.17;;
51475;SDS011;37554;50.362;7.568;2022-08-03T06:37:43;2.60;;;1.30;;
51475;SDS011;37554;50.362;7.568;2022-08-03T06:40:11;6.05;;;1.73;;
51475;SDS011;37554;50.362;7.568;2022-08-03T06:42:38;2.47;;;1.20;;
51475;SDS011;37554;50.362;7.568;2022-08-03T06:45:04;4.75;;;1.73;;
51475;SDS011;37554;50.362;7.568;2022-08-03T06:47:31;2.25;;;1.30;;
51475;SDS011;37554;50.362;7.568;2022-08-03T06:49:56;1.88;;;1.63;;
51475;SDS011;37554;50.362;7.568;2022-08-03T06:52:22;3.05;;;1.38;;
51475;SDS011;37554;50.362;7.568;2022-08-03T06:54:48;3.40;;;1.30;;
51475;SDS011;37554;50.362;7.568;2022-08-03T06:57:13;1.33;;;1.17;;
51475;SDS011;37554;50.362;7.568;2022-08-03T06:59:40;5.05;;;1.40;;
51475;SDS011;37554;50.362;7.568;2022-08-03T07:02:06;2.83;;;1.67;;
51475;SDS011;37554;50.362;7.568;2022-08-03T07:04:33;3.42;;;1.90;;
51475;SDS011;37554;50.362;7.568;2022-08-03T07:06:59;3.13;;;1.50;;
51475;SDS011;37554;50.362;7.568;2022-08-03T07:09:24;7.00;;;1.65;;
51475;SDS011;37554;50.362;7.568;2022-08-03T07:11:50;3.08;;;1.60;;
51475;SDS011;37554;50.362;7.568;2022-08-03T07:14:16;4.72;;;2.17;;
51475;SDS011;37554;50.362;7.568;2022-08-03T07:16:42;6.93;;;1.67;;
51475;SDS011;37554;50.362;7.568;2022-08-03T07:19:07;5.75;;;1.75;;
51475;SDS011;37554;50.362;7.568;2022-08-03T07:21:33;3.55;;;1.40;;
51475;SDS011;37554;50.362;7.568;2022-08-03T07:23:59;3.92;;;1.13;;
51475;SDS011;37554;50.362;7.568;2022-08-03T07:26:24;3.88;;;1.70;;
51475;SDS011;37554;50.362;7.568;2022-08-03T07:28:50;3.17;;;1.50;;
51475;SDS011;37554;50.362;7.568;2022-08-03T07:31:15;5.15;;;1.50;;
51475;SDS011;37554;50.362;7.568;2022-08-03T07:33:41;2.85;;;1.38;;
51475;SDS011;37554;50.362;7.568;2022-08-03T07:36:07;2.05;;;1.20;;
51475;SDS011;37554;50.362;7.568;2022-08-03T07:38:33;2.63;;;1.20;;
51475;SDS011;37554;50.362;7.568;2022-08-03T07:41:00;4.38;;;1.35;;
51475;SDS011;37554;50.362;7.568;2022-08-03T07:43:27;4.20;;;1.30;;
51475;SDS011;37554;50.362;7.568;2022-08-03T07:45:52;6.95;;;1.40;;
51475;SDS011;37554;50.362;7.568;2022-08-03T07:48:18;2.28;;;1.10;;
51475;SDS011;37554;50.362;7.568;2022-08-03T07:50:44;3.63;;;1.10;;
51475;SDS011;37554;50.362;7.568;2022-08-03T07:53:10;5.68;;;1.50;;
51475;SDS011;37554;50.362;7.568;2022-08-03T07:55:36;2.53;;;1.33;;
51475;SDS011;37554;50.362;7.568;2022-08-03T07:58:02;2.17;;;1.23;;
51475;SDS011;37554;50.362;7.568;2022-08-03T08:00:42;4.78;;;1.33;;
51475;SDS011;37554;50.362;7.568;2022-08-03T08:03:08;4.60;;;1.23;;
51475;SDS011;37554;50.362;7.568;2022-08-03T08:05:35;5.30;;;1.40;;
51475;SDS011;37554;50.362;7.568;2022-08-03T08:08:01;3.72;;;1.30;;
51475;SDS011;37554;50.362;7.568;2022-08-03T08:10:27;6.43;;;1.40;;
51475;SDS011;37554;50.362;7.568;2022-08-03T08:12:55;5.55;;;1.38;;
51475;SDS011;37554;50.362;7.568;2022-08-03T08:15:21;7.47;;;1.40;;
51475;SDS011;37554;50.362;7.568;2022-08-03T08:17:51;6.80;;;1.60;;
51475;SDS011;37554;50.362;7.568;2022-08-03T08:20:23;6.47;;;1.50;;
51475;SDS011;37554;50.362;7.568;2022-08-03T08:22:57;8.15;;;1.80;;
51475;SDS011;37554;50.362;7.568;2022-08-03T08:25:24;8.18;;;1.23;;
51475;SDS011;37554;50.362;7.568;2022-08-03T08:27:50;7.05;;;1.42;;
51475;SDS011;37554;50.362;7.568;2022-08-03T08:30:16;4.57;;;1.50;;
51475;SDS011;37554;50.362;7.568;2022-08-03T08:32:44;4.35;;;1.23;;
51475;SDS011;37554;50.362;7.568;2022-08-03T08:35:10;8.38;;;1.52;;
51475;SDS011;37554;50.362;7.568;2022-08-03T08:37:36;4.38;;;1.35;;
51475;SDS011;37554;50.362;7.568;2022-08-03T08:40:02;4.78;;;1.40;;
51475;SDS011;37554;50.362;7.568;2022-08-03T08:42:32;5.53;;;1.80;;
51475;SDS011;37554;50.362;7.568;2022-08-03T08:45:01;2.38;;;1.30;;
51475;SDS011;37554;50.362;7.568;2022-08-03T08:47:29;3.42;;;1.38;;
51475;SDS011;37554;50.362;7.568;2022-08-03T08:49:56;4.80;;;1.20;;
51475;SDS011;37554;50.362;7.568;2022-08-03T08:52:24;4.32;;;1.20;;
51475;SDS011;37554;50.362;7.568;2022-08-03T08:54:53;3.25;;;1.20;;
51475;SDS011;37554;50.362;7.568;2022-08-03T08:57:21;6.25;;;1.30;;
51475;SDS011;37554;50.362;7.568;2022-08-03T08:59:54;6.93;;;1.40;;
51475;SDS011;37554;50.362;7.568;2022-08-03T09:02:24;5.50;;;1.00;;
51475;SDS011;37554;50.362;7.568;2022-08-03T09:04:50;4.28;;;1.40;;
51475;SDS011;37554;50.362;7.568;2022-08-03T09:07:16;7.40;;;1.50;;
51475;SDS011;37554;50.362;7.568;2022-08-03T09:09:42;13.13;;;1.90;;
51475;SDS011;37554;50.362;7.568;2022-08-03T09:12:08;7.18;;;1.90;;
51475;SDS011;37554;50.362;7.568;2022-08-03T09:14:34;8.70;;;2.15;;
51475;SDS011;37554;50.362;7.568;2022-08-03T09:17:00;8.50;;;1.85;;
51475;SDS011;37554;50.362;7.568;2022-08-03T09:19:28;8.30;;;1.92;;
51475;SDS011;37554;50.362;7.568;2022-08-03T09:24:36;3.88;;;1.55;;
51475;SDS011;37554;50.362;7.568;2022-08-03T09:27:06;5.93;;;1.58;;
51475;SDS011;37554;50.362;7.568;2022-08-03T09:29:40;5.55;;;1.40;;
51475;SDS011;37554;50.362;7.568;2022-08-03T09:32:11;7.35;;;1.30;;
51475;SDS011;37554;50.362;7.568;2022-08-03T09:34:37;4.30;;;1.50;;
51475;SDS011;37554;50.362;7.568;2022-08-03T09:37:03;3.35;;;1.20;;
51475;SDS011;37554;50.362;7.568;2022-08-03T09:39:39;8.45;;;1.55;;
51475;SDS011;37554;50.362;7.568;2022-08-03T09:42:11;1.38;;;0.90;;
51475;SDS011;37554;50.362;7.568;2022-08-03T09:44:40;5.30;;;1.40;;
51475;SDS011;37554;50.362;7.568;2022-08-03T09:47:10;4.20;;;1.30;;
51475;SDS011;37554;50.362;7.568;2022-08-03T09:49:37;2.72;;;0.90;;
51475;SDS011;37554;50.362;7.568;2022-08-03T09:52:17;2.33;;;1.00;;
51475;SDS011;37554;50.362;7.568;2022-08-03T09:54:52;3.97;;;1.08;;
51475;SDS011;37554;50.362;7.568;2022-08-03T09:57:21;5.35;;;0.90;;
51475;SDS011;37554;50.362;7.568;2022-08-03T09:59:48;4.65;;;1.02;;
51475;SDS011;37554;50.362;7.568;2022-08-03T10:02:21;3.10;;;1.00;;
51475;SDS011;37554;50.362;7.568;2022-08-03T10:04:51;6.97;;;1.10;;
51475;SDS011;37554;50.362;7.568;2022-08-03T10:07:22;1.80;;;0.90;;
51475;SDS011;37554;50.362;7.568;2022-08-03T10:09:58;3.17;;;0.88;;
51475;SDS011;37554;50.362;7.568;2022-08-03T10:12:25;3.13;;;0.77;;
51475;SDS011;37554;50.362;7.568;2022-08-03T10:14:52;3.70;;;1.10;;
51475;SDS011;37554;50.362;7.568;2022-08-03T10:17:21;1.75;;;0.93;;
51475;SDS011;37554;50.362;7.568;2022-08-03T10:19:48;7.18;;;1.13;;
51475;SDS011;37554;50.362;7.568;2022-08-03T10:22:25;2.70;;;0.80;;
51475;SDS011;37554;50.362;7.568;2022-08-03T10:24:54;5.50;;;0.90;;
51475;SDS011;37554;50.362;7.568;2022-08-03T10:27:24;5.45;;;1.00;;
51475;SDS011;37554;50.362;7.568;2022-08-03T10:29:55;3.85;;;0.88;;
51475;SDS011;37554;50.362;7.568;2022-08-03T10:32:29;2.20;;;0.68;;
51475;SDS011;37554;50.362;7.568;2022-08-03T10:35:07;1.23;;;0.63;;
51475;SDS011;37554;50.362;7.568;2022-08-03T10:37:40;1.05;;;0.60;;
51475;SDS011;37554;50.362;7.568;2022-08-03T10:40:13;2.80;;;0.90;;
51475;SDS011;37554;50.362;7.568;2022-08-03T10:42:43;2.65;;;0.70;;
51475;SDS011;37554;50.362;7.568;2022-08-03T10:45:12;1.42;;;0.60;;
51475;SDS011;37554;50.362;7.568;2022-08-03T10:47:43;5.20;;;1.33;;
51475;SDS011;37554;50.362;7.568;2022-08-03T10:50:11;3.70;;;0.90;;
51475;SDS011;37554;50.362;7.568;2022-08-03T11:01:08;4.30;;;0.90;;
51475;SDS011;37554;50.362;7.568;2022-08-03T11:06:40;4.55;;;0.75;;
51475;SDS011;37554;50.362;7.568;2022-08-03T11:11:34;0.90;;;0.70;;
51475;SDS011;37554;50.362;7.568;2022-08-03T11:14:07;2.65;;;0.90;;
51475;SDS011;37554;50.362;7.568;2022-08-03T11:19:17;4.10;;;0.90;;
51475;SDS011;37554;50.362;7.568;2022-08-03T11:40:39;2.67;;;0.75;;
51475;SDS011;37554;50.362;7.568;2022-08-03T11:43:42;2.13;;;0.80;;
51475;SDS011;37554;50.362;7.568;2022-08-03T11:48:21;4.47;;;0.82;;
51475;SDS011;37554;50.362;7.568;2022-08-03T11:50:47;0.77;;;0.60;;
51475;SDS011;37554;50.362;7.568;2022-08-03T11:53:15;4.65;;;0.80;;
51475;SDS011;37554;50.362;7.568;2022-08-03T11:55:42;3.92;;;0.80;;
51475;SDS011;37554;50.362;7.568;2022-08-03T11:58:18;4.13;;;1.13;;
51475;SDS011;37554;50.362;7.568;2022-08-03T12:00:46;9.73;;;1.20;;
51475;SDS011;37554;50.362;7.568;2022-08-03T12:03:13;4.43;;;0.90;;
51475;SDS011;37554;50.362;7.568;2022-08-03T12:05:44;4.15;;;1.20;;
51475;SDS011;37554;50.362;7.568;2022-08-03T12:08:11;4.43;;;0.70;;
51475;SDS011;37554;50.362;7.568;2022-08-03T12:10:39;3.78;;;0.70;;
51475;SDS011;37554;50.362;7.568;2022-08-03T12:13:09;2.20;;;0.80;;
51475;SDS011;37554;50.362;7.568;2022-08-03T12:15:35;3.40;;;0.80;;
51475;SDS011;37554;50.362;7.568;2022-08-03T12:18:03;1.27;;;0.57;;
51475;SDS011;37554;50.362;7.568;2022-08-03T12:20:36;3.08;;;0.63;;
51475;SDS011;37554;50.362;7.568;2022-08-03T12:23:03;4.55;;;0.70;;
51475;SDS011;37554;50.362;7.568;2022-08-03T12:25:30;1.40;;;0.68;;
51475;SDS011;37554;50.362;7.568;2022-08-03T12:30:34;1.83;;;0.73;;
51475;SDS011;37554;50.362;7.568;2022-08-03T12:33:22;1.50;;;0.70;;
51475;SDS011;37554;50.362;7.568;2022-08-03T12:35:49;2.90;;;0.80;;
51475;SDS011;37554;50.362;7.568;2022-08-03T12:38:36;4.35;;;0.80;;
51475;SDS011;37554;50.362;7.568;2022-08-03T12:41:06;3.22;;;0.80;;
51475;SDS011;37554;50.362;7.568;2022-08-03T12:43:48;2.22;;;0.70;;
51475;SDS011;37554;50.362;7.568;2022-08-03T12:46:16;1.50;;;0.52;;
51475;SDS011;37554;50.362;7.568;2022-08-03T12:48:56;3.63;;;0.70;;
51475;SDS011;37554;50.362;7.568;2022-08-03T12:54:18;8.20;;;0.93;;
51475;SDS011;37554;50.362;7.568;2022-08-03T12:57:02;1.85;;;0.80;;
51475;SDS011;37554;50.362;7.568;2022-08-03T12:59:38;2.60;;;0.50;;
51475;SDS011;37554;50.362;7.568;2022-08-03T13:02:27;3.35;;;0.70;;
51475;SDS011;37554;50.362;7.568;2022-08-03T13:04:53;1.50;;;0.60;;
51475;SDS011;37554;50.362;7.568;2022-08-03T13:07:20;4.20;;;0.68;;
51475;SDS011;37554;50.362;7.568;2022-08-03T13:09:50;2.90;;;0.57;;
51475;SDS011;37554;50.362;7.568;2022-08-03T13:12:19;6.40;;;0.70;;
51475;SDS011;37554;50.362;7.568;2022-08-03T13:14:58;3.95;;;0.60;;
51475;SDS011;37554;50.362;7.568;2022-08-03T13:17:25;2.42;;;0.50;;
51475;SDS011;37554;50.362;7.568;2022-08-03T13:19:51;2.85;;;0.65;;
51475;SDS011;37554;50.362;7.568;2022-08-03T13:22:21;2.72;;;0.60;;
51475;SDS011;37554;50.362;7.568;2022-08-03T13:24:50;3.10;;;0.47;;
51475;SDS011;37554;50.362;7.568;2022-08-03T13:27:19;1.13;;;0.47;;
51475;SDS011;37554;50.362;7.568;2022-08-03T13:29:45;2.88;;;0.50;;
51475;SDS011;37554;50.362;7.568;2022-08-03T13:32:11;2.83;;;0.60;;
51475;SDS011;37554;50.362;7.568;2022-08-03T13:34:36;0.93;;;0.40;;
51475;SDS011;37554;50.362;7.568;2022-08-03T13:37:02;0.60;;;0.30;;
51475;SDS011;37554;50.362;7.568;2022-08-03T13:39:29;1.80;;;0.43;;
51475;SDS011;37554;50.362;7.568;2022-08-03T13:41:54;0.20;;;0.20;;
51475;SDS011;37554;50.362;7.568;2022-08-03T13:44:20;2.05;;;0.30;;
51475;SDS011;37554;50.362;7.568;2022-08-03T13:46:46;1.83;;;0.30;;
51475;SDS011;37554;50.362;7.568;2022-08-03T13:49:12;1.83;;;0.30;;
51475;SDS011;37554;50.362;7.568;2022-08-03T13:51:37;0.95;;;0.30;;
51475;SDS011;37554;50.362;7.568;2022-08-03T13:54:03;4.18;;;0.30;;
51475;SDS011;37554;50.362;7.568;2022-08-03T13:56:29;0.75;;;0.30;;
51475;SDS011;37554;50.362;7.568;2022-08-03T13:58:55;2.95;;;0.30;;
51475;SDS011;37554;50.362;7.568;2022-08-03T14:01:22;0.60;;;0.32;;
51475;SDS011;37554;50.362;7.568;2022-08-03T14:03:48;0.60;;;0.30;;
51475;SDS011;37554;50.362;7.568;2022-08-03T14:06:18;1.30;;;0.20;;
51475;SDS011;37554;50.362;7.568;2022-08-03T14:08:44;2.08;;;0.30;;
51475;SDS011;37554;50.362;7.568;2022-08-03T14:11:10;1.30;;;0.20;;
51475;SDS011;37554;50.362;7.568;2022-08-03T14:13:36;2.22;;;0.20;;
51475;SDS011;37554;50.362;7.568;2022-08-03T14:16:02;0.75;;;0.30;;
51475;SDS011;37554;50.362;7.568;2022-08-03T14:18:28;4.45;;;0.40;;
51475;SDS011;37554;50.362;7.568;2022-08-03T14:20:53;1.83;;;0.30;;
51475;SDS011;37554;50.362;7.568;2022-08-03T14:23:19;0.93;;;0.22;;
51475;SDS011;37554;50.362;7.568;2022-08-03T14:25:45;1.23;;;0.30;;
51475;SDS011;37554;50.362;7.568;2022-08-03T14:28:10;3.70;;;0.25;;
51475;SDS011;37554;50.362;7.568;2022-08-03T14:30:36;0.93;;;0.30;;
51475;SDS011;37554;50.362;7.568;2022-08-03T14:33:02;1.98;;;0.40;;
51475;SDS011;37554;50.362;7.568;2022-08-03T14:35:28;1.17;;;0.30;;
51475;SDS011;37554;50.362;7.568;2022-08-03T14:37:53;3.25;;;0.30;;
51475;SDS011;37554;50.362;7.568;2022-08-03T14:40:19;0.35;;;0.25;;
51475;SDS011;37554;50.362;7.568;2022-08-03T14:42:45;0.85;;;0.30;;
51475;SDS011;37554;50.362;7.568;2022-08-03T14:45:12;0.82;;;0.30;;
51475;SDS011;37554;50.362;7.568;2022-08-03T14:47:38;0.70;;;0.40;;
51475;SDS011;37554;50.362;7.568;2022-08-03T14:50:04;1.60;;;0.38;;
51475;SDS011;37554;50.362;7.568;2022-08-03T14:52:31;0.52;;;0.30;;
51475;SDS011;37554;50.362;7.568;2022-08-03T14:54:57;0.50;;;0.40;;
51475;SDS011;37554;50.362;7.568;2022-08-03T14:57:23;1.75;;;0.43;;
51475;SDS011;37554;50.362;7.568;2022-08-03T14:59:49;1.52;;;0.43;;
51475;SDS011;37554;50.362;7.568;2022-08-03T15:02:15;1.75;;;0.40;;
51475;SDS011;37554;50.362;7.568;2022-08-03T15:04:41;1.40;;;0.50;;
51475;SDS011;37554;50.362;7.568;2022-08-03T15:07:07;1.33;;;0.40;;
51475;SDS011;37554;50.362;7.568;2022-08-03T15:09:32;0.68;;;0.40;;
51475;SDS011;37554;50.362;7.568;2022-08-03T15:11:58;4.05;;;0.50;;
51475;SDS011;37554;50.362;7.568;2022-08-03T15:14:24;1.02;;;0.70;;
51475;SDS011;37554;50.362;7.568;2022-08-03T15:16:50;1.02;;;0.32;;
51475;SDS011;37554;50.362;7.568;2022-08-03T15:19:16;4.53;;;0.38;;
51475;SDS011;37554;50.362;7.568;2022-08-03T15:21:41;2.35;;;0.70;;
51475;SDS011;37554;50.362;7.568;2022-08-03T15:24:07;2.15;;;0.40;;
51475;SDS011;37554;50.362;7.568;2022-08-03T15:26:33;0.57;;;0.35;;
51475;SDS011;37554;50.362;7.568;2022-08-03T15:28:58;0.47;;;0.30;;
51475;SDS011;37554;50.362;7.568;2022-08-03T15:31:24;4.00;;;0.40;;
51475;SDS011;37554;50.362;7.568;2022-08-03T15:33:50;3.25;;;0.40;;
51475;SDS011;37554;50.362;7.568;2022-08-03T15:36:16;2.65;;;0.40;;
51475;SDS011;37554;50.362;7.568;2022-08-03T15:38:43;6.18;;;0.95;;
51475;SDS011;37554;50.362;7.568;2022-08-03T15:41:09;6.10;;;1.30;;
51475;SDS011;37554;50.362;7.568;2022-08-03T15:43:35;3.30;;;0.77;;
51475;SDS011;37554;50.362;7.568;2022-08-03T15:46:01;3.63;;;0.75;;
51475;SDS011;37554;50.362;7.568;2022-08-03T15:48:27;4.80;;;0.73;;
51475;SDS011;37554;50.362;7.568;2022-08-03T15:50:52;2.30;;;0.73;;
51475;SDS011;37554;50.362;7.568;2022-08-03T15:53:19;2.22;;;0.52;;